sensor_id;sensor_type;location;lat;lon;timestamp;P1;durP1;ratioP1;P2;durP2;ratioP2
20146;SDS011;10234;50.856;15.716;2022-12-16T00:02:26;85.00;;;39.05;;
20146;SDS011;10234;50.856;15.716;2022-12-16T00:04:54;68.17;;;35.77;;
20146;SDS011;10234;50.856;15.716;2022-12-16T00:07:22;77.80;;;36.57;;
20146;SDS011;10234;50.856;15.716;2022-12-16T00:09:49;78.50;;;37.53;;
20146;SDS011;10234;50.856;15.716;2022-12-16T00:12:16;77.60;;;36.87;;
20146;SDS011;10234;50.856;15.716;2022-12-16T00:14:43;91.50;;;39.17;;
20146;SDS011;10234;50.856;15.716;2022-12-16T00:17:10;78.40;;;37.30;;
20146;SDS011;10234;50.856;15.716;2022-12-16T00:19:37;85.70;;;38.20;;
20146;SDS011;10234;50.856;15.716;2022-12-16T00:22:05;79.33;;;39.13;;
20146;SDS011;10234;50.856;15.716;2022-12-16T00:24:32;99.57;;;44.40;;
20146;SDS011;10234;50.856;15.716;2022-12-16T00:26:59;76.20;;;36.03;;
20146;SDS011;10234;50.856;15.716;2022-12-16T00:29:26;74.97;;;34.97;;
20146;SDS011;10234;50.856;15.716;2022-12-16T00:31:53;85.07;;;39.90;;
20146;SDS011;10234;50.856;15.716;2022-12-16T00:34:20;77.13;;;34.67;;
20146;SDS011;10234;50.856;15.716;2022-12-16T00:36:47;78.07;;;37.17;;
20146;SDS011;10234;50.856;15.716;2022-12-16T00:39:15;78.67;;;36.77;;
20146;SDS011;10234;50.856;15.716;2022-12-16T00:41:42;87.40;;;39.30;;
20146;SDS011;10234;50.856;15.716;2022-12-16T00:44:11;82.63;;;37.20;;
20146;SDS011;10234;50.856;15.716;2022-12-16T00:46:38;80.40;;;37.67;;
20146;SDS011;10234;50.856;15.716;2022-12-16T00:49:05;72.30;;;37.45;;
20146;SDS011;10234;50.856;15.716;2022-12-16T00:51:32;81.72;;;35.38;;
20146;SDS011;10234;50.856;15.716;2022-12-16T00:53:59;82.23;;;37.10;;
20146;SDS011;10234;50.856;15.716;2022-12-16T00:56:27;90.88;;;39.38;;
20146;SDS011;10234;50.856;15.716;2022-12-16T00:58:54;68.03;;;34.30;;
20146;SDS011;10234;50.856;15.716;2022-12-16T01:01:21;69.07;;;35.75;;
20146;SDS011;10234;50.856;15.716;2022-12-16T01:03:48;70.90;;;34.63;;
20146;SDS011;10234;50.856;15.716;2022-12-16T01:06:16;79.27;;;37.17;;
20146;SDS011;10234;50.856;15.716;2022-12-16T01:08:43;73.35;;;34.95;;
20146;SDS011;10234;50.856;15.716;2022-12-16T01:11:12;79.85;;;35.38;;
20146;SDS011;10234;50.856;15.716;2022-12-16T01:13:41;72.40;;;34.53;;
20146;SDS011;10234;50.856;15.716;2022-12-16T01:16:08;68.93;;;31.65;;
20146;SDS011;10234;50.856;15.716;2022-12-16T01:18:35;61.67;;;28.80;;
20146;SDS011;10234;50.856;15.716;2022-12-16T01:21:02;60.45;;;27.88;;
20146;SDS011;10234;50.856;15.716;2022-12-16T01:23:30;59.63;;;29.67;;
20146;SDS011;10234;50.856;15.716;2022-12-16T01:25:58;67.00;;;30.80;;
20146;SDS011;10234;50.856;15.716;2022-12-16T01:28:26;65.97;;;33.55;;
20146;SDS011;10234;50.856;15.716;2022-12-16T01:30:55;61.85;;;29.50;;
20146;SDS011;10234;50.856;15.716;2022-12-16T01:33:25;68.10;;;33.10;;
20146;SDS011;10234;50.856;15.716;2022-12-16T01:35:57;75.30;;;33.73;;
20146;SDS011;10234;50.856;15.716;2022-12-16T01:38:25;83.93;;;39.00;;
20146;SDS011;10234;50.856;15.716;2022-12-16T01:40:52;86.82;;;38.38;;
20146;SDS011;10234;50.856;15.716;2022-12-16T01:43:19;87.97;;;43.03;;
20146;SDS011;10234;50.856;15.716;2022-12-16T01:45:50;93.78;;;41.25;;
20146;SDS011;10234;50.856;15.716;2022-12-16T01:48:21;91.35;;;43.05;;
20146;SDS011;10234;50.856;15.716;2022-12-16T01:50:58;99.70;;;41.30;;
20146;SDS011;10234;50.856;15.716;2022-12-16T01:53:28;91.30;;;43.75;;
20146;SDS011;10234;50.856;15.716;2022-12-16T01:55:55;101.50;;;45.97;;
20146;SDS011;10234;50.856;15.716;2022-12-16T01:58:25;87.43;;;41.33;;
20146;SDS011;10234;50.856;15.716;2022-12-16T02:00:55;85.00;;;39.97;;
20146;SDS011;10234;50.856;15.716;2022-12-16T02:03:23;81.85;;;39.25;;
20146;SDS011;10234;50.856;15.716;2022-12-16T02:05:52;80.40;;;35.87;;
20146;SDS011;10234;50.856;15.716;2022-12-16T02:08:20;81.13;;;35.07;;
20146;SDS011;10234;50.856;15.716;2022-12-16T02:13:36;83.90;;;35.25;;
20146;SDS011;10234;50.856;15.716;2022-12-16T02:16:07;74.60;;;37.42;;
20146;SDS011;10234;50.856;15.716;2022-12-16T02:18:43;83.72;;;37.35;;
20146;SDS011;10234;50.856;15.716;2022-12-16T02:21:28;95.38;;;42.40;;
20146;SDS011;10234;50.856;15.716;2022-12-16T02:24:17;87.85;;;39.53;;
20146;SDS011;10234;50.856;15.716;2022-12-16T02:27:29;76.75;;;37.88;;
20146;SDS011;10234;50.856;15.716;2022-12-16T02:30:07;73.97;;;35.85;;
20146;SDS011;10234;50.856;15.716;2022-12-16T02:32:51;84.10;;;36.42;;
20146;SDS011;10234;50.856;15.716;2022-12-16T02:35:30;70.23;;;31.77;;
20146;SDS011;10234;50.856;15.716;2022-12-16T02:38:06;68.70;;;34.03;;
20146;SDS011;10234;50.856;15.716;2022-12-16T02:40:40;75.70;;;36.80;;
20146;SDS011;10234;50.856;15.716;2022-12-16T02:43:11;69.43;;;33.95;;
20146;SDS011;10234;50.856;15.716;2022-12-16T02:45:45;80.72;;;38.90;;
20146;SDS011;10234;50.856;15.716;2022-12-16T02:48:13;79.70;;;37.67;;
20146;SDS011;10234;50.856;15.716;2022-12-16T02:50:41;83.28;;;39.30;;
20146;SDS011;10234;50.856;15.716;2022-12-16T02:53:12;79.30;;;37.90;;
20146;SDS011;10234;50.856;15.716;2022-12-16T02:55:43;70.55;;;34.10;;
20146;SDS011;10234;50.856;15.716;2022-12-16T02:58:18;83.67;;;37.43;;
20146;SDS011;10234;50.856;15.716;2022-12-16T03:00:55;72.72;;;35.92;;
20146;SDS011;10234;50.856;15.716;2022-12-16T03:03:31;86.45;;;37.53;;
20146;SDS011;10234;50.856;15.716;2022-12-16T03:06:04;81.50;;;37.80;;
20146;SDS011;10234;50.856;15.716;2022-12-16T03:08:32;84.25;;;37.00;;
20146;SDS011;10234;50.856;15.716;2022-12-16T03:11:03;77.00;;;34.28;;
20146;SDS011;10234;50.856;15.716;2022-12-16T03:13:34;74.40;;;36.90;;
20146;SDS011;10234;50.856;15.716;2022-12-16T03:16:06;74.80;;;36.08;;
20146;SDS011;10234;50.856;15.716;2022-12-16T03:18:35;78.35;;;36.45;;
20146;SDS011;10234;50.856;15.716;2022-12-16T03:21:05;67.35;;;34.38;;
20146;SDS011;10234;50.856;15.716;2022-12-16T03:23:35;77.53;;;36.13;;
20146;SDS011;10234;50.856;15.716;2022-12-16T03:26:07;73.10;;;34.05;;
20146;SDS011;10234;50.856;15.716;2022-12-16T03:28:40;68.35;;;31.58;;
20146;SDS011;10234;50.856;15.716;2022-12-16T03:31:15;71.78;;;32.75;;
20146;SDS011;10234;50.856;15.716;2022-12-16T03:33:47;70.30;;;32.70;;
20146;SDS011;10234;50.856;15.716;2022-12-16T03:36:18;68.88;;;33.55;;
20146;SDS011;10234;50.856;15.716;2022-12-16T03:38:47;60.42;;;31.98;;
20146;SDS011;10234;50.856;15.716;2022-12-16T03:41:16;68.47;;;31.23;;
20146;SDS011;10234;50.856;15.716;2022-12-16T03:43:45;66.22;;;32.22;;
20146;SDS011;10234;50.856;15.716;2022-12-16T03:46:14;71.75;;;32.85;;
20146;SDS011;10234;50.856;15.716;2022-12-16T03:48:45;67.25;;;31.88;;
20146;SDS011;10234;50.856;15.716;2022-12-16T03:51:14;68.97;;;31.83;;
20146;SDS011;10234;50.856;15.716;2022-12-16T03:53:41;63.13;;;29.95;;
20146;SDS011;10234;50.856;15.716;2022-12-16T03:56:08;69.90;;;32.15;;
20146;SDS011;10234;50.856;15.716;2022-12-16T03:58:35;80.85;;;34.28;;
20146;SDS011;10234;50.856;15.716;2022-12-16T04:01:04;63.63;;;31.20;;
20146;SDS011;10234;50.856;15.716;2022-12-16T04:03:32;72.93;;;34.97;;
20146;SDS011;10234;50.856;15.716;2022-12-16T04:05:59;82.37;;;36.73;;
20146;SDS011;10234;50.856;15.716;2022-12-16T04:08:28;79.80;;;38.27;;
20146;SDS011;10234;50.856;15.716;2022-12-16T04:10:54;82.43;;;37.70;;
20146;SDS011;10234;50.856;15.716;2022-12-16T04:13:39;70.87;;;34.93;;
20146;SDS011;10234;50.856;15.716;2022-12-16T04:16:24;76.60;;;34.00;;
20146;SDS011;10234;50.856;15.716;2022-12-16T04:19:13;70.00;;;33.90;;
20146;SDS011;10234;50.856;15.716;2022-12-16T04:22:02;73.65;;;34.38;;
20146;SDS011;10234;50.856;15.716;2022-12-16T04:24:46;70.80;;;31.33;;
20146;SDS011;10234;50.856;15.716;2022-12-16T04:27:13;60.00;;;29.75;;
20146;SDS011;10234;50.856;15.716;2022-12-16T04:29:50;57.35;;;28.48;;
20146;SDS011;10234;50.856;15.716;2022-12-16T04:32:35;63.10;;;31.17;;
20146;SDS011;10234;50.856;15.716;2022-12-16T04:35:21;59.03;;;28.02;;
20146;SDS011;10234;50.856;15.716;2022-12-16T04:38:20;60.50;;;28.60;;
20146;SDS011;10234;50.856;15.716;2022-12-16T04:41:05;58.22;;;28.17;;
20146;SDS011;10234;50.856;15.716;2022-12-16T04:43:49;65.03;;;30.58;;
20146;SDS011;10234;50.856;15.716;2022-12-16T04:46:34;54.70;;;27.27;;
20146;SDS011;10234;50.856;15.716;2022-12-16T04:49:18;64.80;;;30.15;;
20146;SDS011;10234;50.856;15.716;2022-12-16T04:52:04;63.70;;;30.00;;
20146;SDS011;10234;50.856;15.716;2022-12-16T04:54:48;64.40;;;29.35;;
20146;SDS011;10234;50.856;15.716;2022-12-16T04:57:32;71.80;;;28.20;;
20146;SDS011;10234;50.856;15.716;2022-12-16T05:00:17;61.67;;;28.00;;
20146;SDS011;10234;50.856;15.716;2022-12-16T05:03:02;55.53;;;26.90;;
20146;SDS011;10234;50.856;15.716;2022-12-16T05:05:47;68.15;;;29.77;;
20146;SDS011;10234;50.856;15.716;2022-12-16T05:08:33;64.97;;;28.73;;
20146;SDS011;10234;50.856;15.716;2022-12-16T05:11:18;72.05;;;31.98;;
20146;SDS011;10234;50.856;15.716;2022-12-16T05:14:02;78.18;;;31.25;;
20146;SDS011;10234;50.856;15.716;2022-12-16T05:16:47;73.15;;;31.67;;
20146;SDS011;10234;50.856;15.716;2022-12-16T05:19:31;61.40;;;31.23;;
20146;SDS011;10234;50.856;15.716;2022-12-16T05:22:15;72.38;;;30.05;;
20146;SDS011;10234;50.856;15.716;2022-12-16T05:25:01;71.05;;;30.60;;
20146;SDS011;10234;50.856;15.716;2022-12-16T05:27:48;72.63;;;30.13;;
20146;SDS011;10234;50.856;15.716;2022-12-16T05:30:33;77.95;;;31.58;;
20146;SDS011;10234;50.856;15.716;2022-12-16T05:33:18;70.25;;;30.52;;
20146;SDS011;10234;50.856;15.716;2022-12-16T05:36:03;71.70;;;29.90;;
20146;SDS011;10234;50.856;15.716;2022-12-16T05:38:59;65.93;;;29.83;;
20146;SDS011;10234;50.856;15.716;2022-12-16T05:41:45;68.97;;;29.02;;
20146;SDS011;10234;50.856;15.716;2022-12-16T05:44:29;67.00;;;28.10;;
20146;SDS011;10234;50.856;15.716;2022-12-16T05:47:13;72.85;;;32.38;;
20146;SDS011;10234;50.856;15.716;2022-12-16T05:49:58;74.68;;;30.48;;
20146;SDS011;10234;50.856;15.716;2022-12-16T05:52:47;65.85;;;29.70;;
20146;SDS011;10234;50.856;15.716;2022-12-16T05:55:28;66.20;;;31.40;;
20146;SDS011;10234;50.856;15.716;2022-12-16T05:58:14;63.83;;;28.40;;
20146;SDS011;10234;50.856;15.716;2022-12-16T06:00:58;66.10;;;29.42;;
20146;SDS011;10234;50.856;15.716;2022-12-16T06:03:43;66.45;;;28.92;;
20146;SDS011;10234;50.856;15.716;2022-12-16T06:06:27;66.05;;;29.85;;
20146;SDS011;10234;50.856;15.716;2022-12-16T06:09:12;62.72;;;30.27;;
20146;SDS011;10234;50.856;15.716;2022-12-16T06:11:56;71.03;;;32.58;;
20146;SDS011;10234;50.856;15.716;2022-12-16T06:14:42;65.57;;;29.25;;
20146;SDS011;10234;50.856;15.716;2022-12-16T06:17:26;60.55;;;29.38;;
20146;SDS011;10234;50.856;15.716;2022-12-16T06:20:10;61.95;;;29.98;;
20146;SDS011;10234;50.856;15.716;2022-12-16T06:22:55;65.45;;;29.83;;
20146;SDS011;10234;50.856;15.716;2022-12-16T06:25:39;71.22;;;31.08;;
20146;SDS011;10234;50.856;15.716;2022-12-16T06:28:24;69.05;;;31.20;;
20146;SDS011;10234;50.856;15.716;2022-12-16T06:31:10;70.22;;;32.72;;
20146;SDS011;10234;50.856;15.716;2022-12-16T06:33:54;72.30;;;34.40;;
20146;SDS011;10234;50.856;15.716;2022-12-16T06:36:39;76.38;;;35.75;;
20146;SDS011;10234;50.856;15.716;2022-12-16T06:39:23;71.28;;;34.63;;
20146;SDS011;10234;50.856;15.716;2022-12-16T06:42:08;68.50;;;33.63;;
20146;SDS011;10234;50.856;15.716;2022-12-16T06:44:52;77.10;;;37.70;;
20146;SDS011;10234;50.856;15.716;2022-12-16T06:47:38;81.15;;;37.92;;
20146;SDS011;10234;50.856;15.716;2022-12-16T06:50:24;83.75;;;38.25;;
20146;SDS011;10234;50.856;15.716;2022-12-16T06:53:08;81.80;;;39.83;;
20146;SDS011;10234;50.856;15.716;2022-12-16T06:55:53;88.80;;;42.63;;
20146;SDS011;10234;50.856;15.716;2022-12-16T06:58:37;83.50;;;40.53;;
20146;SDS011;10234;50.856;15.716;2022-12-16T07:01:22;89.38;;;42.50;;
20146;SDS011;10234;50.856;15.716;2022-12-16T07:04:07;93.45;;;42.97;;
20146;SDS011;10234;50.856;15.716;2022-12-16T07:06:52;94.28;;;45.20;;
20146;SDS011;10234;50.856;15.716;2022-12-16T07:09:36;96.28;;;44.40;;
20146;SDS011;10234;50.856;15.716;2022-12-16T07:12:21;98.80;;;48.92;;
20146;SDS011;10234;50.856;15.716;2022-12-16T07:15:05;100.90;;;47.38;;
20146;SDS011;10234;50.856;15.716;2022-12-16T07:17:50;98.40;;;48.25;;
20146;SDS011;10234;50.856;15.716;2022-12-16T07:20:35;91.38;;;45.28;;
20146;SDS011;10234;50.856;15.716;2022-12-16T07:23:19;95.40;;;44.67;;
20146;SDS011;10234;50.856;15.716;2022-12-16T07:26:06;91.72;;;43.15;;
20146;SDS011;10234;50.856;15.716;2022-12-16T07:28:56;91.35;;;42.45;;
20146;SDS011;10234;50.856;15.716;2022-12-16T07:31:40;97.65;;;44.10;;
20146;SDS011;10234;50.856;15.716;2022-12-16T07:34:30;98.60;;;44.40;;
20146;SDS011;10234;50.856;15.716;2022-12-16T07:37:16;87.68;;;44.03;;
20146;SDS011;10234;50.856;15.716;2022-12-16T07:40:15;100.03;;;44.13;;
20146;SDS011;10234;50.856;15.716;2022-12-16T07:42:59;94.50;;;44.38;;
20146;SDS011;10234;50.856;15.716;2022-12-16T07:45:44;102.88;;;47.10;;
20146;SDS011;10234;50.856;15.716;2022-12-16T07:48:29;188.88;;;81.15;;
20146;SDS011;10234;50.856;15.716;2022-12-16T07:51:13;99.57;;;41.83;;
20146;SDS011;10234;50.856;15.716;2022-12-16T07:53:59;85.38;;;40.88;;
20146;SDS011;10234;50.856;15.716;2022-12-16T07:56:44;81.93;;;38.10;;
20146;SDS011;10234;50.856;15.716;2022-12-16T07:59:28;92.85;;;38.78;;
20146;SDS011;10234;50.856;15.716;2022-12-16T08:02:12;84.82;;;38.53;;
20146;SDS011;10234;50.856;15.716;2022-12-16T08:04:56;79.70;;;38.53;;
20146;SDS011;10234;50.856;15.716;2022-12-16T08:07:41;94.30;;;39.95;;
20146;SDS011;10234;50.856;15.716;2022-12-16T08:10:27;116.35;;;56.92;;
20146;SDS011;10234;50.856;15.716;2022-12-16T08:13:11;92.60;;;44.95;;
20146;SDS011;10234;50.856;15.716;2022-12-16T08:15:55;95.47;;;46.05;;
20146;SDS011;10234;50.856;15.716;2022-12-16T08:18:40;92.15;;;43.70;;
20146;SDS011;10234;50.856;15.716;2022-12-16T08:21:25;102.05;;;48.13;;
20146;SDS011;10234;50.856;15.716;2022-12-16T08:24:09;97.88;;;46.03;;
20146;SDS011;10234;50.856;15.716;2022-12-16T08:26:55;92.40;;;44.47;;
20146;SDS011;10234;50.856;15.716;2022-12-16T08:29:39;96.90;;;45.33;;
20146;SDS011;10234;50.856;15.716;2022-12-16T08:32:24;86.32;;;40.80;;
20146;SDS011;10234;50.856;15.716;2022-12-16T08:35:08;91.43;;;42.47;;
20146;SDS011;10234;50.856;15.716;2022-12-16T08:37:53;95.55;;;43.17;;
20146;SDS011;10234;50.856;15.716;2022-12-16T08:40:38;101.43;;;47.35;;
20146;SDS011;10234;50.856;15.716;2022-12-16T08:43:24;108.68;;;53.20;;
20146;SDS011;10234;50.856;15.716;2022-12-16T08:46:09;118.93;;;59.90;;
20146;SDS011;10234;50.856;15.716;2022-12-16T08:48:54;93.30;;;46.17;;
20146;SDS011;10234;50.856;15.716;2022-12-16T08:51:38;99.70;;;45.10;;
20146;SDS011;10234;50.856;15.716;2022-12-16T08:54:22;88.45;;;43.38;;
20146;SDS011;10234;50.856;15.716;2022-12-16T08:57:07;94.10;;;46.10;;
20146;SDS011;10234;50.856;15.716;2022-12-16T08:59:52;100.55;;;44.72;;
20146;SDS011;10234;50.856;15.716;2022-12-16T09:02:36;93.80;;;45.78;;
20146;SDS011;10234;50.856;15.716;2022-12-16T09:05:21;97.78;;;45.58;;
20146;SDS011;10234;50.856;15.716;2022-12-16T09:08:05;80.70;;;41.97;;
20146;SDS011;10234;50.856;15.716;2022-12-16T09:10:50;86.45;;;41.60;;
20146;SDS011;10234;50.856;15.716;2022-12-16T09:13:34;78.05;;;38.28;;
20146;SDS011;10234;50.856;15.716;2022-12-16T09:16:20;87.88;;;36.38;;
20146;SDS011;10234;50.856;15.716;2022-12-16T09:19:04;79.22;;;35.40;;
20146;SDS011;10234;50.856;15.716;2022-12-16T09:21:48;79.30;;;34.53;;
20146;SDS011;10234;50.856;15.716;2022-12-16T09:24:33;66.95;;;31.00;;
20146;SDS011;10234;50.856;15.716;2022-12-16T09:27:17;57.88;;;28.85;;
20146;SDS011;10234;50.856;15.716;2022-12-16T09:30:02;65.60;;;30.30;;
20146;SDS011;10234;50.856;15.716;2022-12-16T09:32:48;58.55;;;28.92;;
20146;SDS011;10234;50.856;15.716;2022-12-16T09:35:33;56.15;;;27.88;;
20146;SDS011;10234;50.856;15.716;2022-12-16T09:38:17;57.70;;;27.85;;
20146;SDS011;10234;50.856;15.716;2022-12-16T09:41:08;58.55;;;28.38;;
20146;SDS011;10234;50.856;15.716;2022-12-16T09:44:07;57.97;;;28.27;;
20146;SDS011;10234;50.856;15.716;2022-12-16T09:46:59;59.05;;;26.75;;
20146;SDS011;10234;50.856;15.716;2022-12-16T09:49:50;55.50;;;26.95;;
20146;SDS011;10234;50.856;15.716;2022-12-16T09:52:38;57.80;;;29.92;;
20146;SDS011;10234;50.856;15.716;2022-12-16T09:55:28;57.90;;;27.35;;
20146;SDS011;10234;50.856;15.716;2022-12-16T09:58:15;61.13;;;28.73;;
20146;SDS011;10234;50.856;15.716;2022-12-16T10:01:03;59.72;;;28.15;;
20146;SDS011;10234;50.856;15.716;2022-12-16T10:03:48;62.10;;;29.83;;
20146;SDS011;10234;50.856;15.716;2022-12-16T10:06:36;53.92;;;28.05;;
20146;SDS011;10234;50.856;15.716;2022-12-16T10:09:27;53.50;;;27.80;;
20146;SDS011;10234;50.856;15.716;2022-12-16T10:12:25;62.17;;;30.58;;
20146;SDS011;10234;50.856;15.716;2022-12-16T10:15:25;60.38;;;28.30;;
20146;SDS011;10234;50.856;15.716;2022-12-16T10:18:21;51.90;;;27.15;;
20146;SDS011;10234;50.856;15.716;2022-12-16T10:21:13;60.45;;;30.05;;
20146;SDS011;10234;50.856;15.716;2022-12-16T10:24:04;57.67;;;28.27;;
20146;SDS011;10234;50.856;15.716;2022-12-16T10:26:59;52.58;;;26.88;;
20146;SDS011;10234;50.856;15.716;2022-12-16T10:29:49;66.68;;;30.45;;
20146;SDS011;10234;50.856;15.716;2022-12-16T10:32:36;56.95;;;27.45;;
20146;SDS011;10234;50.856;15.716;2022-12-16T10:35:24;57.97;;;30.80;;
20146;SDS011;10234;50.856;15.716;2022-12-16T10:38:13;52.40;;;25.10;;
20146;SDS011;10234;50.856;15.716;2022-12-16T10:41:05;54.28;;;29.10;;
20146;SDS011;10234;50.856;15.716;2022-12-16T10:43:50;55.53;;;29.02;;
20146;SDS011;10234;50.856;15.716;2022-12-16T10:46:36;48.42;;;25.52;;
20146;SDS011;10234;50.856;15.716;2022-12-16T10:49:21;48.30;;;23.92;;
20146;SDS011;10234;50.856;15.716;2022-12-16T10:52:08;47.38;;;23.92;;
20146;SDS011;10234;50.856;15.716;2022-12-16T10:54:56;50.38;;;26.23;;
20146;SDS011;10234;50.856;15.716;2022-12-16T10:57:50;51.42;;;26.42;;
20146;SDS011;10234;50.856;15.716;2022-12-16T11:00:43;53.65;;;26.48;;
20146;SDS011;10234;50.856;15.716;2022-12-16T11:03:29;60.10;;;27.88;;
20146;SDS011;10234;50.856;15.716;2022-12-16T11:06:16;53.33;;;26.45;;
20146;SDS011;10234;50.856;15.716;2022-12-16T11:09:19;61.75;;;33.13;;
20146;SDS011;10234;50.856;15.716;2022-12-16T11:12:19;51.72;;;28.27;;
20146;SDS011;10234;50.856;15.716;2022-12-16T11:15:23;49.10;;;26.55;;
20146;SDS011;10234;50.856;15.716;2022-12-16T11:18:09;51.60;;;25.80;;
20146;SDS011;10234;50.856;15.716;2022-12-16T11:21:08;56.90;;;28.00;;
20146;SDS011;10234;50.856;15.716;2022-12-16T11:24:03;63.83;;;33.42;;
20146;SDS011;10234;50.856;15.716;2022-12-16T11:26:55;51.50;;;28.67;;
20146;SDS011;10234;50.856;15.716;2022-12-16T11:29:50;67.22;;;33.25;;
20146;SDS011;10234;50.856;15.716;2022-12-16T11:32:37;65.00;;;33.15;;
20146;SDS011;10234;50.856;15.716;2022-12-16T11:35:27;62.63;;;31.83;;
20146;SDS011;10234;50.856;15.716;2022-12-16T11:38:15;52.08;;;28.73;;
20146;SDS011;10234;50.856;15.716;2022-12-16T11:41:05;54.13;;;26.65;;
20146;SDS011;10234;50.856;15.716;2022-12-16T11:43:59;73.72;;;32.80;;
20146;SDS011;10234;50.856;15.716;2022-12-16T11:46:45;54.67;;;27.17;;
20146;SDS011;10234;50.856;15.716;2022-12-16T11:49:32;63.67;;;35.45;;
20146;SDS011;10234;50.856;15.716;2022-12-16T11:52:16;60.03;;;31.80;;
20146;SDS011;10234;50.856;15.716;2022-12-16T11:55:06;59.33;;;29.73;;
20146;SDS011;10234;50.856;15.716;2022-12-16T11:58:00;72.47;;;34.35;;
20146;SDS011;10234;50.856;15.716;2022-12-16T12:00:53;75.85;;;37.15;;
20146;SDS011;10234;50.856;15.716;2022-12-16T12:03:45;65.70;;;35.90;;
20146;SDS011;10234;50.856;15.716;2022-12-16T12:06:34;58.35;;;30.40;;
20146;SDS011;10234;50.856;15.716;2022-12-16T12:09:30;59.95;;;29.85;;
20146;SDS011;10234;50.856;15.716;2022-12-16T12:12:21;57.17;;;29.40;;
20146;SDS011;10234;50.856;15.716;2022-12-16T12:15:15;58.47;;;30.27;;
20146;SDS011;10234;50.856;15.716;2022-12-16T12:18:04;61.28;;;31.92;;
20146;SDS011;10234;50.856;15.716;2022-12-16T12:21:00;61.42;;;30.38;;
20146;SDS011;10234;50.856;15.716;2022-12-16T12:23:54;62.55;;;32.03;;
20146;SDS011;10234;50.856;15.716;2022-12-16T12:26:48;59.20;;;31.63;;
20146;SDS011;10234;50.856;15.716;2022-12-16T12:29:41;69.30;;;32.92;;
20146;SDS011;10234;50.856;15.716;2022-12-16T12:32:39;100.80;;;52.83;;
20146;SDS011;10234;50.856;15.716;2022-12-16T12:35:34;79.40;;;41.85;;
20146;SDS011;10234;50.856;15.716;2022-12-16T12:38:29;93.68;;;45.50;;
20146;SDS011;10234;50.856;15.716;2022-12-16T12:41:22;84.68;;;44.80;;
20146;SDS011;10234;50.856;15.716;2022-12-16T12:44:10;92.97;;;47.08;;
20146;SDS011;10234;50.856;15.716;2022-12-16T12:47:03;82.43;;;41.28;;
20146;SDS011;10234;50.856;15.716;2022-12-16T12:49:51;85.05;;;43.25;;
20146;SDS011;10234;50.856;15.716;2022-12-16T12:52:46;80.78;;;40.03;;
20146;SDS011;10234;50.856;15.716;2022-12-16T12:55:48;76.38;;;35.67;;
20146;SDS011;10234;50.856;15.716;2022-12-16T12:58:41;94.13;;;49.08;;
20146;SDS011;10234;50.856;15.716;2022-12-16T13:01:27;90.07;;;49.58;;
20146;SDS011;10234;50.856;15.716;2022-12-16T13:04:16;83.82;;;42.28;;
20146;SDS011;10234;50.856;15.716;2022-12-16T13:07:02;105.93;;;53.72;;
20146;SDS011;10234;50.856;15.716;2022-12-16T13:13:27;73.45;;;39.40;;
20146;SDS011;10234;50.856;15.716;2022-12-16T13:19:43;72.28;;;33.47;;
20146;SDS011;10234;50.856;15.716;2022-12-16T13:22:35;91.78;;;48.22;;
20146;SDS011;10234;50.856;15.716;2022-12-16T13:25:37;125.78;;;87.45;;
20146;SDS011;10234;50.856;15.716;2022-12-16T13:28:33;65.50;;;37.70;;
20146;SDS011;10234;50.856;15.716;2022-12-16T13:31:19;55.20;;;29.52;;
20146;SDS011;10234;50.856;15.716;2022-12-16T13:34:05;58.40;;;29.85;;
20146;SDS011;10234;50.856;15.716;2022-12-16T13:37:04;60.03;;;29.77;;
20146;SDS011;10234;50.856;15.716;2022-12-16T13:39:56;62.42;;;30.13;;
20146;SDS011;10234;50.856;15.716;2022-12-16T13:42:52;55.42;;;28.35;;
20146;SDS011;10234;50.856;15.716;2022-12-16T13:45:41;63.25;;;33.53;;
20146;SDS011;10234;50.856;15.716;2022-12-16T13:48:34;57.95;;;30.27;;
20146;SDS011;10234;50.856;15.716;2022-12-16T13:54:59;55.83;;;29.20;;
20146;SDS011;10234;50.856;15.716;2022-12-16T13:57:54;78.93;;;44.78;;
20146;SDS011;10234;50.856;15.716;2022-12-16T14:00:47;67.18;;;38.00;;
20146;SDS011;10234;50.856;15.716;2022-12-16T14:03:41;75.63;;;43.80;;
20146;SDS011;10234;50.856;15.716;2022-12-16T14:06:28;66.15;;;33.50;;
20146;SDS011;10234;50.856;15.716;2022-12-16T14:09:23;59.42;;;30.73;;
20146;SDS011;10234;50.856;15.716;2022-12-16T14:12:15;55.40;;;27.95;;
20146;SDS011;10234;50.856;15.716;2022-12-16T14:15:13;54.53;;;29.38;;
20146;SDS011;10234;50.856;15.716;2022-12-16T14:18:02;63.28;;;33.15;;
20146;SDS011;10234;50.856;15.716;2022-12-16T14:20:58;60.13;;;30.77;;
20146;SDS011;10234;50.856;15.716;2022-12-16T14:23:45;59.95;;;29.00;;
20146;SDS011;10234;50.856;15.716;2022-12-16T14:26:34;61.83;;;34.38;;
20146;SDS011;10234;50.856;15.716;2022-12-16T14:29:22;65.32;;;31.60;;
20146;SDS011;10234;50.856;15.716;2022-12-16T14:32:19;60.20;;;29.67;;
20146;SDS011;10234;50.856;15.716;2022-12-16T14:35:05;77.03;;;44.05;;
20146;SDS011;10234;50.856;15.716;2022-12-16T14:37:55;73.22;;;40.70;;
20146;SDS011;10234;50.856;15.716;2022-12-16T14:40:40;68.10;;;35.45;;
20146;SDS011;10234;50.856;15.716;2022-12-16T14:43:25;69.72;;;35.05;;
20146;SDS011;10234;50.856;15.716;2022-12-16T14:46:17;75.90;;;37.25;;
20146;SDS011;10234;50.856;15.716;2022-12-16T14:49:14;65.80;;;33.22;;
20146;SDS011;10234;50.856;15.716;2022-12-16T14:52:08;63.60;;;32.35;;
20146;SDS011;10234;50.856;15.716;2022-12-16T14:54:59;60.42;;;30.95;;
20146;SDS011;10234;50.856;15.716;2022-12-16T14:57:59;59.10;;;30.90;;
20146;SDS011;10234;50.856;15.716;2022-12-16T15:00:45;63.45;;;33.15;;
20146;SDS011;10234;50.856;15.716;2022-12-16T15:03:33;68.80;;;34.78;;
20146;SDS011;10234;50.856;15.716;2022-12-16T15:06:22;65.18;;;34.13;;
20146;SDS011;10234;50.856;15.716;2022-12-16T15:09:11;68.13;;;34.42;;
20146;SDS011;10234;50.856;15.716;2022-12-16T15:12:04;63.60;;;33.55;;
20146;SDS011;10234;50.856;15.716;2022-12-16T15:14:51;70.63;;;37.15;;
20146;SDS011;10234;50.856;15.716;2022-12-16T15:17:40;73.63;;;37.03;;
20146;SDS011;10234;50.856;15.716;2022-12-16T15:20:32;79.18;;;39.90;;
20146;SDS011;10234;50.856;15.716;2022-12-16T15:23:20;79.53;;;36.55;;
20146;SDS011;10234;50.856;15.716;2022-12-16T15:26:07;78.45;;;39.05;;
20146;SDS011;10234;50.856;15.716;2022-12-16T15:28:52;71.20;;;35.83;;
20146;SDS011;10234;50.856;15.716;2022-12-16T15:31:37;67.95;;;33.88;;
20146;SDS011;10234;50.856;15.716;2022-12-16T15:34:24;70.90;;;33.00;;
20146;SDS011;10234;50.856;15.716;2022-12-16T15:37:14;94.05;;;43.20;;
20146;SDS011;10234;50.856;15.716;2022-12-16T15:40:01;74.53;;;33.47;;
20146;SDS011;10234;50.856;15.716;2022-12-16T15:42:48;70.97;;;35.40;;
20146;SDS011;10234;50.856;15.716;2022-12-16T15:45:34;67.93;;;33.58;;
20146;SDS011;10234;50.856;15.716;2022-12-16T15:48:20;73.20;;;35.60;;
20146;SDS011;10234;50.856;15.716;2022-12-16T15:51:18;91.15;;;48.15;;
20146;SDS011;10234;50.856;15.716;2022-12-16T15:54:11;75.40;;;35.60;;